Portada
METAR-TAF:

METAR-TAF

Aeropuertos :

Le Luc, Francia

latitud: 43-23N, longitud: 006-23E, altitud: 80 m

Observación

El informe se hizo hace 33 minutos, a las 03:00 UTC
Viento 3 kt del este
Temperatura 12°C
Humedad 76%
Presión 1016 hPa
Visibilidad 10 km o más

METAR: LFMC 010300Z AUTO 08003KT 9999 ////// 12/08 Q1016

Hora: 05:33 (03:33 UTC)


TAF: falta

Observaciones y pronósticos meteorológicos de más de 4000 aeropuertos (mensajes METAR y TAF).

Los puntos amarillos y rojos representan las estaciones disponibles.

Ponga el ratón en el punto deseado para ver el nombre de la estación.

Haga clic para ver las observaciones y los pronósticos meteorológicos.

Para cambiar el mapa : haga clic en los botones verdes con una cruz de color negro para hacer un zoom, en el botón verde con un guión para alejar o en las flechas verdes para mapas adyacentes.


METAR-TAF: